createdAt,value
2017-11-16T00:01:14.898Z,12.10
2017-11-16T00:03:42.172Z,12.00
2017-11-16T00:06:09.458Z,12.50
2017-11-16T00:08:36.733Z,11.57
2017-11-16T00:11:04.020Z,10.50
2017-11-16T00:13:31.287Z,12.70
2017-11-16T00:15:58.577Z,11.97
2017-11-16T00:18:25.847Z,9.70
2017-11-16T00:20:53.143Z,9.90
2017-11-16T00:23:20.410Z,10.47
2017-11-16T00:25:47.685Z,10.57
2017-11-16T00:28:14.968Z,10.50
2017-11-16T00:30:42.262Z,12.30
2017-11-16T00:33:09.536Z,11.77
2017-11-16T00:35:36.805Z,10.23
2017-11-16T00:38:04.095Z,13.17
2017-11-16T00:40:31.366Z,12.60
2017-11-16T00:42:58.648Z,12.57
2017-11-16T00:45:25.922Z,11.37
2017-11-16T00:47:53.210Z,12.90
2017-11-16T00:50:20.480Z,10.90
2017-11-16T00:52:47.765Z,10.30
2017-11-16T00:55:15.033Z,12.30
2017-11-16T00:57:42.324Z,12.10
2017-11-16T01:00:09.587Z,11.43
2017-11-16T01:02:36.894Z,10.60
2017-11-16T01:05:04.169Z,11.83
2017-11-16T01:07:31.444Z,12.17
2017-11-16T01:09:58.735Z,12.30
2017-11-16T01:12:25.999Z,12.60
2017-11-16T01:14:53.300Z,14.97
2017-11-16T01:17:20.575Z,11.50
2017-11-16T01:19:47.864Z,13.00
2017-11-16T01:22:15.144Z,15.43
2017-11-16T01:24:42.436Z,12.80
2017-11-16T01:27:09.699Z,11.83
2017-11-16T01:29:36.991Z,12.80
2017-11-16T01:32:04.263Z,13.80
2017-11-16T01:34:31.554Z,14.80
2017-11-16T01:36:58.818Z,11.93
2017-11-16T01:39:26.130Z,12.50
2017-11-16T01:41:53.400Z,12.37
2017-11-16T01:44:20.668Z,11.77
2017-11-16T01:46:47.956Z,12.17
2017-11-16T01:49:15.223Z,12.83
2017-11-16T01:51:42.511Z,12.27
2017-11-16T01:54:09.787Z,12.50
2017-11-16T01:56:37.080Z,12.00
2017-11-16T01:59:04.346Z,16.20
2017-11-16T02:01:31.641Z,13.77
2017-11-16T02:03:58.914Z,13.87
2017-11-16T02:06:26.209Z,12.53
2017-11-16T02:08:53.475Z,13.40
2017-11-16T02:11:20.767Z,12.70
2017-11-16T02:13:48.038Z,12.40
2017-11-16T02:16:15.330Z,12.63
2017-11-16T02:18:42.599Z,13.87
2017-11-16T02:21:09.896Z,13.43
2017-11-16T02:23:37.178Z,16.40
2017-11-16T02:26:04.470Z,14.23
2017-11-16T02:28:31.740Z,14.10
2017-11-16T02:30:59.017Z,14.37
2017-11-16T02:33:26.321Z,13.97
2017-11-16T02:35:53.591Z,15.17
2017-11-16T02:38:20.879Z,14.90
2017-11-16T02:40:48.146Z,14.77
2017-11-16T02:43:15.432Z,15.70
2017-11-16T02:45:42.710Z,17.40
2017-11-16T02:48:10.002Z,15.63
2017-11-16T02:50:37.265Z,16.50
2017-11-16T02:53:04.556Z,16.03
2017-11-16T02:55:31.827Z,15.63
2017-11-16T02:57:59.120Z,16.63
2017-11-16T03:00:26.392Z,17.17
2017-11-16T03:02:53.684Z,15.37
2017-11-16T03:05:20.952Z,15.60
2017-11-16T03:07:48.239Z,15.83
2017-11-16T03:10:15.511Z,16.63
2017-11-16T03:12:42.784Z,16.80
2017-11-16T03:15:10.077Z,16.70
2017-11-16T03:17:37.345Z,15.50
2017-11-16T03:20:04.630Z,14.80
2017-11-16T03:22:31.904Z,14.33
2017-11-16T03:24:59.197Z,14.57
2017-11-16T03:27:26.465Z,15.47
2017-11-16T03:29:53.754Z,15.57
2017-11-16T03:32:21.023Z,16.93
2017-11-16T03:34:48.317Z,14.43
2017-11-16T03:37:15.590Z,16.10
2017-11-16T03:39:42.884Z,15.90
2017-11-16T03:42:10.152Z,14.40
2017-11-16T03:44:37.463Z,18.27
2017-11-16T03:47:04.729Z,16.50
2017-11-16T03:49:31.997Z,15.40
2017-11-16T03:51:59.287Z,17.07
2017-11-16T03:54:26.562Z,14.67
2017-11-16T03:56:53.848Z,16.83
2017-11-16T03:59:21.125Z,17.30
2017-11-16T04:01:48.415Z,16.50
2017-11-16T04:04:15.692Z,17.40
2017-11-16T04:06:42.984Z,15.77
2017-11-16T04:09:10.255Z,16.37
2017-11-16T04:11:37.539Z,18.00
2017-11-16T04:14:04.817Z,17.23
2017-11-16T04:16:32.105Z,17.10
2017-11-16T04:18:59.427Z,17.20
2017-11-16T04:21:26.675Z,14.27
2017-11-16T04:23:53.947Z,14.10
2017-11-16T04:26:21.240Z,17.80
2017-11-16T04:28:48.532Z,14.30
2017-11-16T04:31:15.808Z,12.67
2017-11-16T04:33:43.071Z,15.93
2017-11-16T04:36:10.377Z,13.90
2017-11-16T04:38:37.656Z,14.50
2017-11-16T04:41:04.923Z,12.70
2017-11-16T04:43:32.215Z,14.50
2017-11-16T04:45:59.483Z,13.47
2017-11-16T04:48:26.782Z,12.60
2017-11-16T04:50:54.039Z,13.37
2017-11-16T04:53:21.340Z,13.00
2017-11-16T04:55:48.616Z,13.53
2017-11-16T04:58:15.908Z,14.73
2017-11-16T05:00:43.184Z,14.87
2017-11-16T05:03:10.479Z,13.27
2017-11-16T05:05:37.750Z,11.20
2017-11-16T05:08:05.038Z,12.80
2017-11-16T05:10:32.308Z,14.90
2017-11-16T05:12:59.620Z,12.73
2017-11-16T05:15:26.894Z,12.53
2017-11-16T05:17:54.159Z,14.07
2017-11-16T05:20:21.453Z,11.87
2017-11-16T05:22:48.727Z,12.87
2017-11-16T05:25:16.023Z,12.70
2017-11-16T05:27:44.127Z,11.10
2017-11-16T05:30:11.421Z,12.90
2017-11-16T05:32:38.692Z,12.83
2017-11-16T05:35:05.983Z,13.03
2017-11-16T05:37:33.254Z,12.20
2017-11-16T05:40:00.536Z,15.07
2017-11-16T05:42:27.808Z,10.93
2017-11-16T05:44:55.095Z,14.33
2017-11-16T05:47:22.368Z,13.60
2017-11-16T05:49:49.666Z,11.80
2017-11-16T05:52:16.927Z,11.80
2017-11-16T05:54:44.211Z,10.57
2017-11-16T05:57:11.488Z,11.83
2017-11-16T05:59:38.772Z,11.10
2017-11-16T06:02:06.040Z,12.73
2017-11-16T06:04:33.317Z,14.18
2017-11-16T06:07:00.604Z,13.00
2017-11-16T06:09:27.871Z,13.10
2017-11-16T06:11:55.164Z,12.83
2017-11-16T06:14:22.431Z,11.93
2017-11-16T06:16:49.729Z,11.60
2017-11-16T06:19:16.991Z,13.27
2017-11-16T06:21:44.305Z,11.70
2017-11-16T06:24:11.577Z,13.17
2017-11-16T06:26:38.868Z,17.10
2017-11-16T06:29:06.171Z,12.80
2017-11-16T06:31:33.461Z,12.63
2017-11-16T06:34:00.732Z,13.00
2017-11-16T06:36:28.044Z,14.23
2017-11-16T06:38:55.308Z,13.93
2017-11-16T06:41:22.637Z,12.97
2017-11-16T06:43:49.919Z,13.53
2017-11-16T06:46:17.192Z,13.53
2017-11-16T06:48:44.499Z,12.27
2017-11-16T06:51:11.852Z,10.13
2017-11-16T06:53:39.127Z,12.00
2017-11-16T06:56:06.430Z,10.50
2017-11-16T06:58:33.715Z,11.00
2017-11-16T07:01:01.008Z,12.70
2017-11-16T07:03:28.303Z,10.80
2017-11-16T07:05:55.573Z,9.70
2017-11-16T07:08:22.885Z,10.87
2017-11-16T07:10:50.148Z,10.63
2017-11-16T07:13:17.439Z,13.33
2017-11-16T07:15:44.748Z,10.50
2017-11-16T07:18:12.020Z,10.63
2017-11-16T07:20:39.299Z,11.20
2017-11-16T07:23:06.596Z,10.20
2017-11-16T07:25:33.872Z,10.07
2017-11-16T07:28:01.168Z,9.67
2017-11-16T07:30:28.436Z,12.10
2017-11-16T07:32:55.706Z,9.33
2017-11-16T07:35:23.018Z,11.60
2017-11-16T07:37:50.316Z,10.40
2017-11-16T07:40:17.631Z,10.87
2017-11-16T07:42:44.946Z,15.93
2017-11-16T07:45:12.212Z,13.53
2017-11-16T07:47:39.487Z,11.70
2017-11-16T07:50:06.784Z,12.00
2017-11-16T07:52:34.052Z,15.63
2017-11-16T07:55:01.363Z,13.80
2017-11-16T07:57:31.136Z,13.30
2017-11-16T08:00:01.101Z,12.33
2017-11-16T08:02:28.932Z,14.23
2017-11-16T08:04:56.222Z,20.27
2017-11-16T08:07:23.511Z,17.20
2017-11-16T08:09:50.784Z,13.63
2017-11-16T08:12:18.067Z,16.80
2017-11-16T08:14:45.367Z,17.03
2017-11-16T08:17:12.671Z,17.90
2017-11-16T08:19:39.964Z,18.37
2017-11-16T08:24:33.008Z,21.70
2017-11-16T08:27:00.274Z,23.13
2017-11-16T08:29:27.567Z,17.90
2017-11-16T08:31:54.879Z,26.10
2017-11-16T08:34:22.173Z,24.07
2017-11-16T08:36:49.452Z,26.90
2017-11-16T08:39:16.753Z,24.87
2017-11-16T08:41:44.051Z,17.83
2017-11-16T08:44:11.341Z,18.27
2017-11-16T08:46:38.641Z,19.57
2017-11-16T08:49:05.919Z,20.30
2017-11-16T08:51:33.185Z,19.10
2017-11-16T08:54:00.485Z,21.40
2017-11-16T08:56:27.751Z,18.17
2017-11-16T08:58:55.048Z,19.07
2017-11-16T09:01:22.343Z,19.30
2017-11-16T09:03:49.622Z,18.70
2017-11-16T09:06:16.933Z,18.53
2017-11-16T09:08:44.201Z,18.67
2017-11-16T09:11:11.471Z,19.13
2017-11-16T09:13:38.768Z,18.67
2017-11-16T09:16:06.145Z,18.70
2017-11-16T09:18:33.599Z,18.37
2017-11-16T09:21:00.952Z,19.63
2017-11-16T09:23:28.281Z,18.07
2017-11-16T09:25:55.571Z,15.23
2017-11-16T09:28:22.838Z,20.47
2017-11-16T09:30:50.170Z,14.03
2017-11-16T09:33:17.445Z,15.63
2017-11-16T09:35:44.707Z,21.13
2017-11-16T09:38:12.032Z,16.00
2017-11-16T09:40:39.308Z,28.57
2017-11-16T09:43:06.578Z,17.73
2017-11-16T09:45:33.880Z,15.60
2017-11-16T09:48:01.162Z,18.47
2017-11-16T09:50:28.470Z,15.37
2017-11-16T09:52:55.753Z,14.33
2017-11-16T09:55:23.032Z,15.43
2017-11-16T09:57:50.367Z,26.60
2017-11-16T10:00:17.635Z,22.33
2017-11-16T10:02:44.985Z,21.83
2017-11-16T10:05:12.268Z,23.03
2017-11-16T10:07:39.541Z,21.37
2017-11-16T10:10:06.849Z,21.20
2017-11-16T10:12:34.192Z,20.53
2017-11-16T10:15:01.548Z,20.90
2017-11-16T10:17:28.847Z,24.30
2017-11-16T10:19:56.156Z,19.70
2017-11-16T10:22:23.450Z,20.27
2017-11-16T10:24:50.723Z,20.27
2017-11-16T10:27:18.125Z,18.30
2017-11-16T10:29:45.479Z,18.10
2017-11-16T10:32:12.745Z,22.30
2017-11-16T10:34:40.045Z,19.23
2017-11-16T10:37:07.311Z,19.03
2017-11-16T10:39:34.617Z,23.43
2017-11-16T10:42:01.888Z,21.03
2017-11-16T10:44:29.164Z,22.20
2017-11-16T10:46:56.460Z,17.90
2017-11-16T10:49:23.752Z,15.87
2017-11-16T10:51:51.031Z,18.37
2017-11-16T10:54:18.324Z,16.53
2017-11-16T10:56:45.628Z,14.87
2017-11-16T10:59:12.904Z,19.00
2017-11-16T11:01:40.169Z,16.40
2017-11-16T11:04:07.475Z,14.63
2017-11-16T11:06:34.749Z,14.07
2017-11-16T11:09:02.027Z,14.60
2017-11-16T11:11:29.316Z,15.00
2017-11-16T11:13:56.588Z,15.53
2017-11-16T11:16:23.913Z,14.80
2017-11-16T11:18:51.159Z,16.20
2017-11-16T11:21:18.427Z,16.20
2017-11-16T11:23:45.738Z,16.87
2017-11-16T11:26:13.021Z,15.07
2017-11-16T12:09:37.200Z,13.90
2017-11-16T12:12:04.496Z,15.37
2017-11-16T12:14:31.824Z,13.40
2017-11-16T12:16:59.109Z,14.27
2017-11-16T12:19:26.380Z,14.60
2017-11-16T12:21:53.668Z,14.97
2017-11-16T12:24:20.940Z,15.20
2017-11-16T12:26:48.241Z,17.70
2017-11-16T12:29:15.542Z,15.00
2017-11-16T12:31:42.812Z,14.53
2017-11-16T12:34:10.117Z,13.87
2017-11-16T12:36:37.384Z,12.77
2017-11-16T12:39:04.653Z,14.13
2017-11-16T12:41:31.993Z,12.10
2017-11-16T12:43:59.299Z,12.10
2017-11-16T12:46:26.573Z,10.20
2017-11-16T12:48:53.964Z,10.50
2017-11-16T12:52:16.523Z,12.10
2017-11-16T12:54:43.825Z,13.80
2017-11-16T12:57:11.096Z,12.20
2017-11-16T12:59:38.394Z,12.53
2017-11-16T13:02:05.692Z,14.30
2017-11-16T13:04:32.960Z,16.17
2017-11-16T13:07:00.359Z,14.77
2017-11-16T13:09:27.628Z,16.27
2017-11-16T13:11:54.900Z,18.70
2017-11-16T13:14:22.196Z,22.57
2017-11-16T13:16:49.465Z,22.80
2017-11-16T13:19:16.911Z,23.73
2017-11-16T13:21:44.212Z,23.20
2017-11-16T13:24:11.484Z,24.30
2017-11-16T13:26:38.770Z,22.70
2017-11-16T13:29:06.033Z,21.03
2017-11-16T13:31:33.320Z,20.00
2017-11-16T13:34:00.592Z,19.80
2017-11-16T13:36:27.884Z,21.17
2017-11-16T13:38:55.260Z,20.20
2017-11-16T13:41:22.551Z,22.30
2017-11-16T13:43:49.826Z,23.23
2017-11-16T13:46:17.103Z,22.73
2017-11-16T13:48:44.462Z,26.90
2017-11-16T13:51:11.733Z,21.10
2017-11-16T13:53:39.023Z,19.43
2017-11-16T13:56:06.333Z,22.23
2017-11-16T13:58:33.623Z,21.23
2017-11-16T14:01:00.892Z,21.80
2017-11-16T14:03:28.180Z,25.40
2017-11-16T14:05:55.451Z,19.53
2017-11-16T14:08:22.739Z,24.57
2017-11-16T14:10:50.012Z,19.23
2017-11-16T14:13:17.303Z,20.70
2017-11-16T14:15:44.575Z,19.17
2017-11-16T14:18:11.914Z,21.57
2017-11-16T14:20:39.189Z,19.50
2017-11-16T14:23:06.515Z,19.00
2017-11-16T14:25:33.875Z,16.83
2017-11-16T14:28:01.144Z,17.50
2017-11-16T14:30:28.437Z,16.57
2017-11-16T14:32:55.708Z,17.90
2017-11-16T14:35:23.005Z,21.17
2017-11-16T14:37:50.281Z,19.60
2017-11-16T14:40:17.564Z,15.97
2017-11-16T14:42:44.833Z,19.47
2017-11-16T14:45:12.215Z,19.20
2017-11-16T14:47:39.482Z,16.07
2017-11-16T14:50:06.770Z,18.10
2017-11-16T14:52:34.044Z,16.43
2017-11-16T14:55:01.337Z,17.03
2017-11-16T14:57:28.600Z,18.10
2017-11-16T14:59:55.899Z,18.87
2017-11-16T15:02:23.197Z,19.20
2017-11-16T15:04:50.463Z,18.63
2017-11-16T15:07:17.764Z,23.33
2017-11-16T15:09:45.030Z,21.77
2017-11-16T15:12:12.316Z,19.73
2017-11-16T15:14:39.664Z,18.07
2017-11-16T15:17:07.013Z,68.60
2017-11-16T15:19:34.280Z,25.13
2017-11-16T15:22:01.580Z,18.10
2017-11-16T15:24:28.872Z,17.70
2017-11-16T15:26:56.226Z,17.90
2017-11-16T15:29:23.503Z,18.70
2017-11-16T15:31:50.789Z,17.03
2017-11-16T15:34:18.088Z,18.57
2017-11-16T15:36:45.399Z,18.27
2017-11-16T15:39:12.664Z,18.60
2017-11-16T15:41:39.933Z,18.37
2017-11-16T15:44:07.246Z,15.30
2017-11-16T15:46:34.520Z,16.07
2017-11-16T15:49:01.908Z,15.60
2017-11-16T15:54:58.112Z,15.90
2017-11-16T15:57:25.383Z,15.90
2017-11-16T15:59:52.672Z,16.03
2017-11-16T16:02:19.985Z,17.50
2017-11-16T16:04:47.271Z,14.50
2017-11-16T16:07:14.543Z,14.63
2017-11-16T16:09:41.828Z,14.40
2017-11-16T16:12:10.531Z,16.63
2017-11-16T16:14:37.817Z,13.77
2017-11-16T16:17:05.085Z,13.40
2017-11-16T16:19:32.364Z,13.63
2017-11-16T16:21:59.640Z,13.03
2017-11-16T16:24:26.948Z,12.47
2017-11-16T16:26:54.220Z,13.67
2017-11-16T16:29:21.493Z,12.40
2017-11-16T16:31:48.780Z,16.43
2017-11-16T16:34:16.050Z,17.90
2017-11-16T16:36:43.420Z,13.50
2017-11-16T16:39:10.702Z,13.53
2017-11-16T16:41:37.980Z,15.50
2017-11-16T16:44:05.256Z,15.23
2017-11-16T16:46:32.547Z,13.77
2017-11-16T16:48:59.817Z,16.33
2017-11-16T16:51:27.100Z,18.00
2017-11-16T16:53:54.430Z,17.67
2017-11-16T16:56:21.763Z,24.23
2017-11-16T16:58:49.032Z,19.50
2017-11-16T17:01:16.351Z,16.93
2017-11-16T17:03:43.624Z,20.37
2017-11-16T17:06:10.888Z,21.40
2017-11-16T17:08:38.179Z,19.23
2017-11-16T17:11:05.452Z,17.90
2017-11-16T17:13:32.736Z,23.23
2017-11-16T17:16:00.005Z,20.80
2017-11-16T17:18:27.301Z,18.73
2017-11-16T17:20:54.576Z,16.50
2017-11-16T17:23:21.877Z,17.33
2017-11-16T17:25:49.143Z,19.07
2017-11-16T17:28:16.501Z,18.80
2017-11-16T17:30:43.761Z,16.20
2017-11-16T17:33:11.048Z,18.20
2017-11-16T17:35:38.321Z,17.90
2017-11-16T17:38:05.623Z,16.60
2017-11-16T17:40:32.902Z,19.60
2017-11-16T17:43:00.159Z,18.90
2017-11-16T17:45:27.454Z,17.10
2017-11-16T17:47:54.716Z,16.40
2017-11-16T17:50:22.004Z,16.57
2017-11-16T17:52:49.271Z,16.37
2017-11-16T17:55:16.560Z,17.27
2017-11-16T17:57:43.828Z,18.23
2017-11-16T18:00:11.116Z,22.13
2017-11-16T18:02:38.389Z,19.03
2017-11-16T18:05:05.672Z,18.93
2017-11-16T18:07:32.945Z,21.87
2017-11-16T18:10:00.229Z,20.87
2017-11-16T18:12:27.503Z,21.23
2017-11-16T18:14:54.791Z,21.57
2017-11-16T18:17:22.057Z,26.43
2017-11-16T18:19:49.349Z,22.67
2017-11-16T18:22:16.620Z,19.17
2017-11-16T18:24:43.927Z,21.50
2017-11-16T18:27:11.192Z,21.90
2017-11-16T18:29:38.472Z,21.90
2017-11-16T18:32:05.760Z,22.90
2017-11-16T18:34:33.023Z,22.40
2017-11-16T18:37:00.316Z,22.80
2017-11-16T18:39:27.585Z,19.93
2017-11-16T18:41:54.873Z,21.07
2017-11-16T18:44:22.143Z,24.20
2017-11-16T18:46:49.442Z,22.80
2017-11-16T18:49:16.710Z,22.63
2017-11-16T18:51:43.997Z,21.07
2017-11-16T18:54:11.276Z,22.20
2017-11-16T18:56:38.573Z,21.03
2017-11-16T18:59:05.845Z,29.93
2017-11-16T19:01:33.144Z,23.67
2017-11-16T19:04:00.408Z,22.80
2017-11-16T19:06:27.675Z,25.47
2017-11-16T19:08:54.969Z,23.03
2017-11-16T19:11:22.248Z,24.50
2017-11-16T19:13:49.536Z,27.10
2017-11-16T19:16:16.806Z,26.47
2017-11-16T19:18:44.098Z,24.80
2017-11-16T19:21:11.369Z,22.93
2017-11-16T19:23:38.656Z,26.30
2017-11-16T19:26:05.932Z,26.30
2017-11-16T19:28:33.212Z,23.07
2017-11-16T19:31:00.495Z,25.50
2017-11-16T19:33:27.789Z,26.33
2017-11-16T19:35:55.060Z,24.80
2017-11-16T19:38:22.367Z,24.77
2017-11-16T19:40:49.639Z,31.17
2017-11-16T19:43:16.917Z,27.10
2017-11-16T19:45:44.201Z,43.07
2017-11-16T19:48:11.528Z,39.70
2017-11-16T19:50:38.819Z,33.67
2017-11-16T19:53:06.093Z,27.63
2017-11-16T19:55:33.384Z,26.47
2017-11-16T19:58:00.660Z,29.20
2017-11-16T20:00:27.949Z,23.70
2017-11-16T20:02:55.216Z,26.03
2017-11-16T20:05:22.507Z,25.50
2017-11-16T20:07:49.783Z,25.43
2017-11-16T20:10:17.069Z,26.00
2017-11-16T20:12:44.340Z,25.60
2017-11-16T20:15:11.627Z,23.63
2017-11-16T20:17:38.904Z,25.10
2017-11-16T20:20:06.232Z,28.33
2017-11-16T20:22:33.573Z,26.80
2017-11-16T20:25:00.836Z,26.70
2017-11-16T20:27:28.124Z,23.50
2017-11-16T20:29:55.399Z,24.20
2017-11-16T20:32:22.716Z,90.03
2017-11-16T20:34:49.993Z,45.55
2017-11-16T20:37:22.993Z,25.97
2017-11-16T20:40:06.093Z,20.73
2017-11-16T20:42:44.118Z,29.13
2017-11-16T20:45:26.282Z,25.30
2017-11-16T20:48:06.204Z,25.07
2017-11-16T20:50:51.157Z,23.73
2017-11-16T20:53:19.183Z,20.87
2017-11-16T20:55:46.454Z,19.57
2017-11-16T20:58:13.745Z,23.47
2017-11-16T21:00:41.044Z,20.97
2017-11-16T21:03:08.342Z,22.83
2017-11-16T21:05:35.612Z,23.07
2017-11-16T21:08:02.897Z,18.20
2017-11-16T21:10:30.172Z,19.30
2017-11-16T21:12:57.460Z,29.27
2017-11-16T21:15:24.729Z,24.67
2017-11-16T21:17:52.032Z,22.60
2017-11-16T21:20:19.303Z,25.07
2017-11-16T21:22:46.573Z,22.13
2017-11-16T21:25:13.860Z,21.90
2017-11-16T21:27:41.133Z,21.43
2017-11-16T21:30:08.430Z,20.73
2017-11-16T21:32:35.699Z,22.40
2017-11-16T21:35:02.992Z,21.50
2017-11-16T21:37:30.257Z,21.60
2017-11-16T21:39:57.547Z,19.57
2017-11-16T21:42:24.827Z,18.47
2017-11-16T21:44:52.128Z,18.30
2017-11-16T21:47:19.403Z,17.93
2017-11-16T21:49:46.680Z,19.80
2017-11-16T21:52:13.972Z,22.33
2017-11-16T21:54:41.244Z,20.30
2017-11-16T21:57:08.528Z,16.50
2017-11-16T21:59:35.796Z,17.60
2017-11-16T22:02:03.084Z,18.23
2017-11-16T22:04:30.363Z,17.07
2017-11-16T22:06:57.643Z,16.67
2017-11-16T22:09:24.912Z,16.10
2017-11-16T22:11:52.200Z,15.80
2017-11-16T22:14:19.472Z,16.90
2017-11-16T22:16:46.768Z,15.80
2017-11-16T22:19:14.032Z,18.75
2017-11-16T22:21:41.413Z,22.87
2017-11-16T22:24:08.768Z,35.53
2017-11-16T22:26:36.036Z,30.67
2017-11-16T22:29:03.326Z,16.40
2017-11-16T22:31:30.600Z,16.43
2017-11-16T22:33:57.886Z,15.93
2017-11-16T22:36:25.154Z,15.17
2017-11-16T22:38:52.444Z,13.83
2017-11-16T22:41:19.716Z,13.40
2017-11-16T22:43:46.999Z,12.33
2017-11-16T22:46:14.267Z,14.50
2017-11-16T22:48:41.568Z,13.13
2017-11-16T22:51:08.833Z,11.10
2017-11-16T22:53:36.138Z,11.27
2017-11-16T22:56:03.408Z,12.80
2017-11-16T22:58:30.680Z,10.60
2017-11-16T23:00:57.964Z,10.27
2017-11-16T23:03:25.249Z,10.67
2017-11-16T23:05:52.544Z,11.20
2017-11-16T23:08:19.808Z,12.60
2017-11-16T23:10:47.096Z,11.33
2017-11-16T23:13:14.368Z,11.10
2017-11-16T23:15:41.656Z,12.30
2017-11-16T23:18:08.933Z,12.23
2017-11-16T23:20:36.240Z,12.43
2017-11-16T23:23:03.514Z,13.77
2017-11-16T23:25:30.785Z,11.53
2017-11-16T23:27:58.070Z,12.52
2017-11-16T23:30:25.343Z,43.17
2017-11-16T23:32:52.638Z,17.10
2017-11-16T23:35:19.915Z,14.73
2017-11-16T23:37:47.205Z,13.70
2017-11-16T23:40:14.472Z,15.10
2017-11-16T23:42:41.755Z,14.20
2017-11-16T23:45:09.035Z,13.50
2017-11-16T23:47:36.323Z,11.80
2017-11-16T23:50:03.592Z,13.23
2017-11-16T23:52:30.895Z,14.07
2017-11-16T23:54:58.172Z,12.67
2017-11-16T23:57:25.461Z,10.23
2017-11-16T23:59:52.729Z,11.60
